Terminal Aerodrome Forecast
Issued by NWS Louisville, KY

Home | Current Version | Previous Version | Text Only | Print | Product List | Glossary On
Versions: 1 2 3 4 5 6 7 8 9 10 11 12 13 14 15 16 17 18 19 20 21 22 23
000
FTUS43 KLMK 050500
TAFLEX
TAF
KLEX 050520Z 0506/0606 36010G20KT 3/4SM -SN BR OVC009
     FM051200 01009KT 2SM -SN BKN019
     FM051900 35009KT P6SM BKN025=

USA.gov is the U.S. government's official web portal to all federal, state and local government web resources and services.